Durbuy, Belgium
Current Conditions -  °F | °C
As of 3:20 AM on Saturday 29 Nov 2014 (Local Time) from EBLG Reporting Station
Haze Haze  
Wind Chill:   Ceiling: Unl
Heat Index:   Visibility: 3mi
Dew Point:   Wind: 2mph
Humidity: 87%   Direction: 120°ESE
Pressure: 29.83"   Gusts: NA
Location:  50.35°N, 5.46°E
Report Text: EBLG 290220Z 12002KT 5000 BR NSC 03/01 Q1010 NOSIG
Loading
Personal Weather Stations






























Interactive Weather Map New forecast layout! Learn more

10-Day Weather Forecast

Advertisements
Track Severe Weather on mobile